sensor_id;sensor_type;location;lat;lon;timestamp;temperature;humidity
16643;DHT22;8435;52.184;5.406;2023-07-29T00:01:59;20.90;99.90
16643;DHT22;8435;52.184;5.406;2023-07-29T00:04:26;20.90;99.90
16643;DHT22;8435;52.184;5.406;2023-07-29T00:06:53;21.00;99.90
16643;DHT22;8435;52.184;5.406;2023-07-29T00:09:20;20.90;99.90
16643;DHT22;8435;52.184;5.406;2023-07-29T00:11:46;20.90;99.90
16643;DHT22;8435;52.184;5.406;2023-07-29T00:14:14;20.90;99.90
16643;DHT22;8435;52.184;5.406;2023-07-29T00:16:41;20.90;99.90
16643;DHT22;8435;52.184;5.406;2023-07-29T00:19:10;20.90;99.90
16643;DHT22;8435;52.184;5.406;2023-07-29T00:21:40;20.90;99.90
16643;DHT22;8435;52.184;5.406;2023-07-29T00:24:08;20.90;99.90
16643;DHT22;8435;52.184;5.406;2023-07-29T00:26:38;20.90;99.90
16643;DHT22;8435;52.184;5.406;2023-07-29T00:29:04;20.90;99.90
16643;DHT22;8435;52.184;5.406;2023-07-29T00:31:33;20.90;99.90
16643;DHT22;8435;52.184;5.406;2023-07-29T00:33:59;20.90;99.90
16643;DHT22;8435;52.184;5.406;2023-07-29T00:36:29;20.90;99.90
16643;DHT22;8435;52.184;5.406;2023-07-29T00:38:55;20.80;99.90
16643;DHT22;8435;52.184;5.406;2023-07-29T00:41:22;20.80;99.90
16643;DHT22;8435;52.184;5.406;2023-07-29T00:43:51;20.80;99.90
16643;DHT22;8435;52.184;5.406;2023-07-29T00:46:21;20.80;99.90
16643;DHT22;8435;52.184;5.406;2023-07-29T00:48:51;20.80;99.90
16643;DHT22;8435;52.184;5.406;2023-07-29T00:51:21;20.80;99.90
16643;DHT22;8435;52.184;5.406;2023-07-29T00:53:47;20.80;99.90
16643;DHT22;8435;52.184;5.406;2023-07-29T00:56:14;20.80;99.90
16643;DHT22;8435;52.184;5.406;2023-07-29T00:58:41;20.80;99.90
16643;DHT22;8435;52.184;5.406;2023-07-29T01:01:09;20.80;99.90
16643;DHT22;8435;52.184;5.406;2023-07-29T01:03:36;20.80;99.90
16643;DHT22;8435;52.184;5.406;2023-07-29T01:06:12;20.80;99.90
16643;DHT22;8435;52.184;5.406;2023-07-29T01:08:48;20.80;99.90
16643;DHT22;8435;52.184;5.406;2023-07-29T01:11:27;20.80;99.90
16643;DHT22;8435;52.184;5.406;2023-07-29T01:14:05;20.90;99.90
16643;DHT22;8435;52.184;5.406;2023-07-29T01:16:39;20.90;99.90
16643;DHT22;8435;52.184;5.406;2023-07-29T01:19:14;20.90;99.90
16643;DHT22;8435;52.184;5.406;2023-07-29T01:21:48;20.90;99.90
16643;DHT22;8435;52.184;5.406;2023-07-29T01:24:16;20.90;99.90
16643;DHT22;8435;52.184;5.406;2023-07-29T01:26:43;20.90;99.90
16643;DHT22;8435;52.184;5.406;2023-07-29T01:29:10;20.90;99.90
16643;DHT22;8435;52.184;5.406;2023-07-29T01:31:41;20.90;99.90
16643;DHT22;8435;52.184;5.406;2023-07-29T01:34:13;20.90;99.90
16643;DHT22;8435;52.184;5.406;2023-07-29T01:36:42;20.90;99.90
16643;DHT22;8435;52.184;5.406;2023-07-29T01:39:15;20.90;99.90
16643;DHT22;8435;52.184;5.406;2023-07-29T01:41:43;20.90;99.90
16643;DHT22;8435;52.184;5.406;2023-07-29T01:44:11;20.90;99.90
16643;DHT22;8435;52.184;5.406;2023-07-29T01:46:39;20.90;99.90
16643;DHT22;8435;52.184;5.406;2023-07-29T01:49:05;20.90;99.90
16643;DHT22;8435;52.184;5.406;2023-07-29T01:51:32;20.90;99.90
16643;DHT22;8435;52.184;5.406;2023-07-29T01:53:59;20.80;99.90
16643;DHT22;8435;52.184;5.406;2023-07-29T01:56:28;20.80;99.90
16643;DHT22;8435;52.184;5.406;2023-07-29T01:58:54;20.80;99.90
16643;DHT22;8435;52.184;5.406;2023-07-29T02:01:21;20.80;99.90
16643;DHT22;8435;52.184;5.406;2023-07-29T02:03:48;20.70;99.90
16643;DHT22;8435;52.184;5.406;2023-07-29T02:06:23;20.70;99.90
16643;DHT22;8435;52.184;5.406;2023-07-29T02:08:51;20.70;99.90
16643;DHT22;8435;52.184;5.406;2023-07-29T02:11:18;20.70;99.90
16643;DHT22;8435;52.184;5.406;2023-07-29T02:13:47;20.70;99.90
16643;DHT22;8435;52.184;5.406;2023-07-29T02:16:14;20.70;99.90
16643;DHT22;8435;52.184;5.406;2023-07-29T02:18:41;20.70;99.90
16643;DHT22;8435;52.184;5.406;2023-07-29T02:21:07;20.70;99.90
16643;DHT22;8435;52.184;5.406;2023-07-29T02:23:34;20.70;99.90
16643;DHT22;8435;52.184;5.406;2023-07-29T02:26:01;20.60;99.90
16643;DHT22;8435;52.184;5.406;2023-07-29T02:28:28;20.60;99.90
16643;DHT22;8435;52.184;5.406;2023-07-29T02:31:15;20.60;99.90
16643;DHT22;8435;52.184;5.406;2023-07-29T02:33:42;20.60;99.90
16643;DHT22;8435;52.184;5.406;2023-07-29T02:36:09;20.60;99.90
16643;DHT22;8435;52.184;5.406;2023-07-29T02:38:36;20.60;99.90
16643;DHT22;8435;52.184;5.406;2023-07-29T02:41:02;20.60;99.90
16643;DHT22;8435;52.184;5.406;2023-07-29T02:43:29;20.60;99.90
16643;DHT22;8435;52.184;5.406;2023-07-29T02:45:56;20.60;99.90
16643;DHT22;8435;52.184;5.406;2023-07-29T02:48:26;20.60;99.90
16643;DHT22;8435;52.184;5.406;2023-07-29T02:50:55;20.60;99.90
16643;DHT22;8435;52.184;5.406;2023-07-29T02:53:22;20.60;99.90
16643;DHT22;8435;52.184;5.406;2023-07-29T02:55:49;20.60;99.90
16643;DHT22;8435;52.184;5.406;2023-07-29T02:58:16;20.60;99.90
16643;DHT22;8435;52.184;5.406;2023-07-29T03:00:43;20.50;99.90
16643;DHT22;8435;52.184;5.406;2023-07-29T03:03:10;20.60;99.90
16643;DHT22;8435;52.184;5.406;2023-07-29T03:05:38;20.50;99.90
16643;DHT22;8435;52.184;5.406;2023-07-29T03:08:05;20.50;99.90
16643;DHT22;8435;52.184;5.406;2023-07-29T03:10:34;20.40;99.90
16643;DHT22;8435;52.184;5.406;2023-07-29T03:13:01;20.40;99.90
16643;DHT22;8435;52.184;5.406;2023-07-29T03:15:28;20.40;99.90
16643;DHT22;8435;52.184;5.406;2023-07-29T03:17:55;20.40;99.90
16643;DHT22;8435;52.184;5.406;2023-07-29T03:20:22;20.40;99.90
16643;DHT22;8435;52.184;5.406;2023-07-29T03:22:50;20.40;99.90
16643;DHT22;8435;52.184;5.406;2023-07-29T03:25:17;20.30;99.90
16643;DHT22;8435;52.184;5.406;2023-07-29T03:27:49;20.30;99.90
16643;DHT22;8435;52.184;5.406;2023-07-29T03:30:19;20.30;99.90
16643;DHT22;8435;52.184;5.406;2023-07-29T03:32:46;20.30;99.90
16643;DHT22;8435;52.184;5.406;2023-07-29T03:35:13;20.30;99.90
16643;DHT22;8435;52.184;5.406;2023-07-29T03:37:40;20.20;99.90
16643;DHT22;8435;52.184;5.406;2023-07-29T03:40:11;20.30;99.90
16643;DHT22;8435;52.184;5.406;2023-07-29T03:42:38;20.20;99.90
16643;DHT22;8435;52.184;5.406;2023-07-29T03:45:06;20.20;99.90
16643;DHT22;8435;52.184;5.406;2023-07-29T03:47:33;20.20;99.90
16643;DHT22;8435;52.184;5.406;2023-07-29T03:49:59;20.20;99.90
16643;DHT22;8435;52.184;5.406;2023-07-29T03:52:26;20.20;99.90
16643;DHT22;8435;52.184;5.406;2023-07-29T03:54:53;20.20;99.90
16643;DHT22;8435;52.184;5.406;2023-07-29T03:57:21;20.20;99.90
16643;DHT22;8435;52.184;5.406;2023-07-29T03:59:48;20.20;99.90
16643;DHT22;8435;52.184;5.406;2023-07-29T04:02:17;20.20;99.90
16643;DHT22;8435;52.184;5.406;2023-07-29T04:04:45;20.20;99.90
16643;DHT22;8435;52.184;5.406;2023-07-29T04:07:13;20.20;99.90
16643;DHT22;8435;52.184;5.406;2023-07-29T04:09:40;20.20;99.90
16643;DHT22;8435;52.184;5.406;2023-07-29T04:12:08;20.10;99.90
16643;DHT22;8435;52.184;5.406;2023-07-29T04:14:37;20.20;99.90
16643;DHT22;8435;52.184;5.406;2023-07-29T04:17:04;20.10;99.90
16643;DHT22;8435;52.184;5.406;2023-07-29T04:19:31;20.10;99.90
16643;DHT22;8435;52.184;5.406;2023-07-29T04:21:58;20.10;99.90
16643;DHT22;8435;52.184;5.406;2023-07-29T04:24:28;20.10;99.90
16643;DHT22;8435;52.184;5.406;2023-07-29T04:26:55;20.10;99.90
16643;DHT22;8435;52.184;5.406;2023-07-29T04:29:22;20.10;99.90
16643;DHT22;8435;52.184;5.406;2023-07-29T04:31:50;20.10;99.90
16643;DHT22;8435;52.184;5.406;2023-07-29T04:34:17;20.10;99.90
16643;DHT22;8435;52.184;5.406;2023-07-29T04:36:47;20.10;99.90
16643;DHT22;8435;52.184;5.406;2023-07-29T04:39:14;20.00;99.90
16643;DHT22;8435;52.184;5.406;2023-07-29T04:41:43;20.10;99.90
16643;DHT22;8435;52.184;5.406;2023-07-29T04:44:10;20.00;99.90
16643;DHT22;8435;52.184;5.406;2023-07-29T04:46:37;20.00;99.90
16643;DHT22;8435;52.184;5.406;2023-07-29T04:49:05;20.00;99.90
16643;DHT22;8435;52.184;5.406;2023-07-29T04:51:32;20.00;99.90
16643;DHT22;8435;52.184;5.406;2023-07-29T04:53:59;20.00;99.90
16643;DHT22;8435;52.184;5.406;2023-07-29T04:56:26;20.00;99.90
16643;DHT22;8435;52.184;5.406;2023-07-29T04:58:53;20.00;99.90
16643;DHT22;8435;52.184;5.406;2023-07-29T05:01:24;20.00;99.90
16643;DHT22;8435;52.184;5.406;2023-07-29T05:03:51;20.00;99.90
16643;DHT22;8435;52.184;5.406;2023-07-29T05:06:20;20.00;99.90
16643;DHT22;8435;52.184;5.406;2023-07-29T05:08:46;20.00;99.90
16643;DHT22;8435;52.184;5.406;2023-07-29T05:11:13;20.00;99.90
16643;DHT22;8435;52.184;5.406;2023-07-29T05:13:40;20.00;99.90
16643;DHT22;8435;52.184;5.406;2023-07-29T05:16:09;20.00;99.90
16643;DHT22;8435;52.184;5.406;2023-07-29T05:18:36;20.00;99.90
16643;DHT22;8435;52.184;5.406;2023-07-29T05:21:03;20.00;99.90
16643;DHT22;8435;52.184;5.406;2023-07-29T05:23:31;20.00;99.90
16643;DHT22;8435;52.184;5.406;2023-07-29T05:25:58;20.10;99.90
16643;DHT22;8435;52.184;5.406;2023-07-29T05:28:25;20.10;99.90
16643;DHT22;8435;52.184;5.406;2023-07-29T05:30:52;20.10;99.90
16643;DHT22;8435;52.184;5.406;2023-07-29T05:33:19;20.10;99.90
16643;DHT22;8435;52.184;5.406;2023-07-29T05:35:48;20.20;99.90
16643;DHT22;8435;52.184;5.406;2023-07-29T05:38:15;20.20;99.90
16643;DHT22;8435;52.184;5.406;2023-07-29T05:40:43;20.30;99.90
16643;DHT22;8435;52.184;5.406;2023-07-29T05:43:10;20.30;99.90
16643;DHT22;8435;52.184;5.406;2023-07-29T05:45:37;20.30;99.90
16643;DHT22;8435;52.184;5.406;2023-07-29T05:48:04;20.30;99.90
16643;DHT22;8435;52.184;5.406;2023-07-29T05:50:31;20.40;99.90
16643;DHT22;8435;52.184;5.406;2023-07-29T05:53:00;20.40;99.90
16643;DHT22;8435;52.184;5.406;2023-07-29T05:55:26;20.50;99.90
16643;DHT22;8435;52.184;5.406;2023-07-29T05:57:57;20.60;99.90
16643;DHT22;8435;52.184;5.406;2023-07-29T06:00:24;20.60;99.90
16643;DHT22;8435;52.184;5.406;2023-07-29T06:02:50;20.70;99.90
16643;DHT22;8435;52.184;5.406;2023-07-29T06:05:17;20.70;99.90
16643;DHT22;8435;52.184;5.406;2023-07-29T06:07:44;20.70;99.90
16643;DHT22;8435;52.184;5.406;2023-07-29T06:10:13;20.80;99.90
16643;DHT22;8435;52.184;5.406;2023-07-29T06:12:44;20.90;99.90
16643;DHT22;8435;52.184;5.406;2023-07-29T06:15:13;20.90;99.90
16643;DHT22;8435;52.184;5.406;2023-07-29T06:17:40;20.90;99.90
16643;DHT22;8435;52.184;5.406;2023-07-29T06:20:07;21.00;99.90
16643;DHT22;8435;52.184;5.406;2023-07-29T06:22:34;21.10;99.90
16643;DHT22;8435;52.184;5.406;2023-07-29T06:25:04;21.20;99.90
16643;DHT22;8435;52.184;5.406;2023-07-29T06:27:31;21.20;99.90
16643;DHT22;8435;52.184;5.406;2023-07-29T06:29:58;21.30;99.90
16643;DHT22;8435;52.184;5.406;2023-07-29T06:32:29;21.40;99.90
16643;DHT22;8435;52.184;5.406;2023-07-29T06:34:56;21.50;99.90
16643;DHT22;8435;52.184;5.406;2023-07-29T06:37:22;21.60;99.90
16643;DHT22;8435;52.184;5.406;2023-07-29T06:39:49;21.70;99.90
16643;DHT22;8435;52.184;5.406;2023-07-29T06:42:16;21.70;99.90
16643;DHT22;8435;52.184;5.406;2023-07-29T06:44:43;21.80;99.90
16643;DHT22;8435;52.184;5.406;2023-07-29T06:47:13;21.80;99.90
16643;DHT22;8435;52.184;5.406;2023-07-29T06:49:45;22.00;99.90
16643;DHT22;8435;52.184;5.406;2023-07-29T06:52:12;22.00;99.90
16643;DHT22;8435;52.184;5.406;2023-07-29T06:54:39;22.10;99.90
16643;DHT22;8435;52.184;5.406;2023-07-29T06:57:06;22.10;99.90
16643;DHT22;8435;52.184;5.406;2023-07-29T06:59:33;22.20;99.90
16643;DHT22;8435;52.184;5.406;2023-07-29T07:02:01;22.20;99.90
16643;DHT22;8435;52.184;5.406;2023-07-29T07:04:31;22.30;99.90
16643;DHT22;8435;52.184;5.406;2023-07-29T07:07:02;22.40;99.90
16643;DHT22;8435;52.184;5.406;2023-07-29T07:09:29;22.40;99.90
16643;DHT22;8435;52.184;5.406;2023-07-29T07:11:55;22.40;99.90
16643;DHT22;8435;52.184;5.406;2023-07-29T07:14:23;22.40;99.90
16643;DHT22;8435;52.184;5.406;2023-07-29T07:16:51;22.50;99.90
16643;DHT22;8435;52.184;5.406;2023-07-29T07:19:18;22.50;99.90
16643;DHT22;8435;52.184;5.406;2023-07-29T07:21:47;22.50;99.90
16643;DHT22;8435;52.184;5.406;2023-07-29T07:24:17;22.60;99.90
16643;DHT22;8435;52.184;5.406;2023-07-29T07:26:44;22.60;99.90
16643;DHT22;8435;52.184;5.406;2023-07-29T07:29:10;22.70;99.90
16643;DHT22;8435;52.184;5.406;2023-07-29T07:31:39;22.80;99.90
16643;DHT22;8435;52.184;5.406;2023-07-29T07:34:06;22.80;99.90
16643;DHT22;8435;52.184;5.406;2023-07-29T07:36:33;22.80;99.80
16643;DHT22;8435;52.184;5.406;2023-07-29T07:38:59;22.80;99.70
16643;DHT22;8435;52.184;5.406;2023-07-29T07:41:29;22.80;99.90
16643;DHT22;8435;52.184;5.406;2023-07-29T07:43:55;22.80;99.70
16643;DHT22;8435;52.184;5.406;2023-07-29T07:46:22;22.80;99.90
16643;DHT22;8435;52.184;5.406;2023-07-29T07:48:49;22.80;99.90
16643;DHT22;8435;52.184;5.406;2023-07-29T07:51:16;22.80;99.90
16643;DHT22;8435;52.184;5.406;2023-07-29T07:53:42;22.70;99.80
16643;DHT22;8435;52.184;5.406;2023-07-29T07:56:09;22.80;99.90
16643;DHT22;8435;52.184;5.406;2023-07-29T07:58:38;22.80;99.90
16643;DHT22;8435;52.184;5.406;2023-07-29T08:01:05;22.80;99.80
16643;DHT22;8435;52.184;5.406;2023-07-29T08:03:33;22.80;99.70
16643;DHT22;8435;52.184;5.406;2023-07-29T08:06:00;22.80;99.90
16643;DHT22;8435;52.184;5.406;2023-07-29T08:08:27;22.80;99.80
16643;DHT22;8435;52.184;5.406;2023-07-29T08:10:55;22.80;99.80
16643;DHT22;8435;52.184;5.406;2023-07-29T08:13:23;22.90;99.80
16643;DHT22;8435;52.184;5.406;2023-07-29T08:15:51;22.90;99.80
16643;DHT22;8435;52.184;5.406;2023-07-29T08:18:19;22.90;99.80
16643;DHT22;8435;52.184;5.406;2023-07-29T08:20:52;23.00;99.90
16643;DHT22;8435;52.184;5.406;2023-07-29T08:23:20;23.00;99.90
16643;DHT22;8435;52.184;5.406;2023-07-29T08:25:52;23.20;99.90
16643;DHT22;8435;52.184;5.406;2023-07-29T08:28:19;23.30;99.70
16643;DHT22;8435;52.184;5.406;2023-07-29T08:30:46;23.30;99.50
16643;DHT22;8435;52.184;5.406;2023-07-29T08:33:17;23.40;99.50
16643;DHT22;8435;52.184;5.406;2023-07-29T08:35:44;23.50;99.60
16643;DHT22;8435;52.184;5.406;2023-07-29T08:38:11;23.60;99.60
16643;DHT22;8435;52.184;5.406;2023-07-29T08:40:42;23.60;99.40
16643;DHT22;8435;52.184;5.406;2023-07-29T08:43:09;23.80;99.10
16643;DHT22;8435;52.184;5.406;2023-07-29T08:45:41;23.90;99.20
16643;DHT22;8435;52.184;5.406;2023-07-29T08:48:10;24.00;98.90
16643;DHT22;8435;52.184;5.406;2023-07-29T08:50:39;24.10;98.60
16643;DHT22;8435;52.184;5.406;2023-07-29T08:53:08;24.30;98.40
16643;DHT22;8435;52.184;5.406;2023-07-29T08:55:34;24.30;98.20
16643;DHT22;8435;52.184;5.406;2023-07-29T08:58:02;24.40;98.10
16643;DHT22;8435;52.184;5.406;2023-07-29T09:00:30;24.40;97.60
16643;DHT22;8435;52.184;5.406;2023-07-29T09:02:57;24.30;97.70
16643;DHT22;8435;52.184;5.406;2023-07-29T09:05:28;24.30;97.70
16643;DHT22;8435;52.184;5.406;2023-07-29T09:07:56;24.30;97.80
16643;DHT22;8435;52.184;5.406;2023-07-29T09:10:25;24.30;98.20
16643;DHT22;8435;52.184;5.406;2023-07-29T09:12:53;24.30;98.00
16643;DHT22;8435;52.184;5.406;2023-07-29T09:15:29;24.30;97.90
16643;DHT22;8435;52.184;5.406;2023-07-29T09:17:57;24.30;97.60
16643;DHT22;8435;52.184;5.406;2023-07-29T09:20:25;24.20;97.60
16643;DHT22;8435;52.184;5.406;2023-07-29T09:22:54;24.20;97.50
16643;DHT22;8435;52.184;5.406;2023-07-29T09:25:26;24.10;97.60
16643;DHT22;8435;52.184;5.406;2023-07-29T09:27:55;24.10;97.60
16643;DHT22;8435;52.184;5.406;2023-07-29T09:30:25;24.10;97.80
16643;DHT22;8435;52.184;5.406;2023-07-29T09:32:55;24.10;97.80
16643;DHT22;8435;52.184;5.406;2023-07-29T09:35:22;24.10;98.00
16643;DHT22;8435;52.184;5.406;2023-07-29T09:37:50;24.10;97.80
16643;DHT22;8435;52.184;5.406;2023-07-29T09:40:17;24.20;97.90
16643;DHT22;8435;52.184;5.406;2023-07-29T09:42:49;24.20;97.80
16643;DHT22;8435;52.184;5.406;2023-07-29T09:45:21;24.30;97.60
16643;DHT22;8435;52.184;5.406;2023-07-29T09:47:48;24.50;97.80
16643;DHT22;8435;52.184;5.406;2023-07-29T09:50:17;24.60;97.80
16643;DHT22;8435;52.184;5.406;2023-07-29T09:52:45;24.70;97.60
16643;DHT22;8435;52.184;5.406;2023-07-29T09:55:17;25.00;97.60
16643;DHT22;8435;52.184;5.406;2023-07-29T09:57:45;25.10;97.00
16643;DHT22;8435;52.184;5.406;2023-07-29T10:00:13;25.30;97.10
16643;DHT22;8435;52.184;5.406;2023-07-29T10:02:44;25.30;96.60
16643;DHT22;8435;52.184;5.406;2023-07-29T10:05:11;25.40;96.30
16643;DHT22;8435;52.184;5.406;2023-07-29T10:07:39;25.30;96.10
16643;DHT22;8435;52.184;5.406;2023-07-29T10:10:07;25.30;96.10
16643;DHT22;8435;52.184;5.406;2023-07-29T10:12:35;25.20;96.30
16643;DHT22;8435;52.184;5.406;2023-07-29T10:15:04;25.10;96.80
16643;DHT22;8435;52.184;5.406;2023-07-29T10:17:34;25.10;96.60
16643;DHT22;8435;52.184;5.406;2023-07-29T10:20:03;25.10;96.60
16643;DHT22;8435;52.184;5.406;2023-07-29T10:22:33;25.00;96.80
16643;DHT22;8435;52.184;5.406;2023-07-29T10:25:04;25.10;96.50
16643;DHT22;8435;52.184;5.406;2023-07-29T10:27:38;25.10;96.80
16643;DHT22;8435;52.184;5.406;2023-07-29T10:30:07;25.10;96.70
16643;DHT22;8435;52.184;5.406;2023-07-29T10:32:37;25.20;96.50
16643;DHT22;8435;52.184;5.406;2023-07-29T10:35:05;25.30;96.30
16643;DHT22;8435;52.184;5.406;2023-07-29T10:37:33;25.30;96.30
16643;DHT22;8435;52.184;5.406;2023-07-29T10:40:00;25.30;95.90
16643;DHT22;8435;52.184;5.406;2023-07-29T10:42:27;25.30;96.00
16643;DHT22;8435;52.184;5.406;2023-07-29T10:44:54;25.20;96.50
16643;DHT22;8435;52.184;5.406;2023-07-29T10:47:23;25.10;96.60
16643;DHT22;8435;52.184;5.406;2023-07-29T10:49:52;25.00;97.00
16643;DHT22;8435;52.184;5.406;2023-07-29T10:52:32;24.90;96.90
16643;DHT22;8435;52.184;5.406;2023-07-29T10:55:04;24.70;97.40
16643;DHT22;8435;52.184;5.406;2023-07-29T10:57:48;24.60;97.40
16643;DHT22;8435;52.184;5.406;2023-07-29T11:00:15;24.50;97.40
16643;DHT22;8435;52.184;5.406;2023-07-29T11:02:43;24.30;98.20
16643;DHT22;8435;52.184;5.406;2023-07-29T11:05:18;24.20;98.20
16643;DHT22;8435;52.184;5.406;2023-07-29T11:07:45;24.10;98.30
16643;DHT22;8435;52.184;5.406;2023-07-29T11:10:13;24.00;98.40
16643;DHT22;8435;52.184;5.406;2023-07-29T11:12:42;23.90;98.70
16643;DHT22;8435;52.184;5.406;2023-07-29T11:15:29;23.90;98.90
16643;DHT22;8435;52.184;5.406;2023-07-29T11:17:56;23.80;99.30
16643;DHT22;8435;52.184;5.406;2023-07-29T11:20:26;23.80;99.40
16643;DHT22;8435;52.184;5.406;2023-07-29T11:22:54;23.80;99.50
16643;DHT22;8435;52.184;5.406;2023-07-29T11:25:22;23.80;99.50
16643;DHT22;8435;52.184;5.406;2023-07-29T11:27:51;23.80;99.90
16643;DHT22;8435;52.184;5.406;2023-07-29T11:30:18;23.90;99.90
16643;DHT22;8435;52.184;5.406;2023-07-29T11:32:46;23.90;99.70
16643;DHT22;8435;52.184;5.406;2023-07-29T11:35:14;24.00;99.50
16643;DHT22;8435;52.184;5.406;2023-07-29T11:37:45;23.90;99.30
16643;DHT22;8435;52.184;5.406;2023-07-29T11:40:14;23.90;99.20
16643;DHT22;8435;52.184;5.406;2023-07-29T11:42:41;23.90;99.20
16643;DHT22;8435;52.184;5.406;2023-07-29T11:45:09;23.80;99.20
16643;DHT22;8435;52.184;5.406;2023-07-29T11:47:36;23.70;99.50
16643;DHT22;8435;52.184;5.406;2023-07-29T11:50:04;23.70;99.30
16643;DHT22;8435;52.184;5.406;2023-07-29T11:52:33;23.60;99.40
16643;DHT22;8435;52.184;5.406;2023-07-29T11:55:02;23.60;99.30
16643;DHT22;8435;52.184;5.406;2023-07-29T11:57:29;23.50;99.20
16643;DHT22;8435;52.184;5.406;2023-07-29T11:59:58;23.50;99.40
16643;DHT22;8435;52.184;5.406;2023-07-29T12:02:25;23.50;99.60
16643;DHT22;8435;52.184;5.406;2023-07-29T12:04:53;23.40;99.90
16643;DHT22;8435;52.184;5.406;2023-07-29T12:07:20;23.40;99.90
16643;DHT22;8435;52.184;5.406;2023-07-29T12:09:47;23.50;99.90
16643;DHT22;8435;52.184;5.406;2023-07-29T12:12:16;23.50;99.90
16643;DHT22;8435;52.184;5.406;2023-07-29T12:14:44;23.60;99.90
16643;DHT22;8435;52.184;5.406;2023-07-29T12:17:12;23.60;99.90
16643;DHT22;8435;52.184;5.406;2023-07-29T12:19:40;23.70;99.90
16643;DHT22;8435;52.184;5.406;2023-07-29T12:22:08;23.80;99.90
16643;DHT22;8435;52.184;5.406;2023-07-29T12:24:36;23.90;99.90
16643;DHT22;8435;52.184;5.406;2023-07-29T12:27:05;24.00;99.90
16643;DHT22;8435;52.184;5.406;2023-07-29T12:29:40;24.10;99.90
16643;DHT22;8435;52.184;5.406;2023-07-29T12:32:07;24.20;99.70
16643;DHT22;8435;52.184;5.406;2023-07-29T12:34:38;24.30;99.40
16643;DHT22;8435;52.184;5.406;2023-07-29T12:37:08;24.30;99.10
16643;DHT22;8435;52.184;5.406;2023-07-29T12:39:35;24.40;99.00
16643;DHT22;8435;52.184;5.406;2023-07-29T12:42:06;24.40;99.10
16643;DHT22;8435;52.184;5.406;2023-07-29T12:44:35;24.40;98.60
16643;DHT22;8435;52.184;5.406;2023-07-29T12:47:04;24.50;98.40
16643;DHT22;8435;52.184;5.406;2023-07-29T12:49:31;24.50;98.60
16643;DHT22;8435;52.184;5.406;2023-07-29T12:51:58;24.50;98.60
16643;DHT22;8435;52.184;5.406;2023-07-29T12:54:26;24.50;98.90
16643;DHT22;8435;52.184;5.406;2023-07-29T12:56:53;24.60;98.90
16643;DHT22;8435;52.184;5.406;2023-07-29T12:59:19;24.60;98.60
16643;DHT22;8435;52.184;5.406;2023-07-29T13:01:48;24.70;98.60
16643;DHT22;8435;52.184;5.406;2023-07-29T13:04:15;24.80;98.50
16643;DHT22;8435;52.184;5.406;2023-07-29T13:06:42;24.90;98.30
16643;DHT22;8435;52.184;5.406;2023-07-29T13:09:08;24.90;98.30
16643;DHT22;8435;52.184;5.406;2023-07-29T13:11:35;25.00;98.10
16643;DHT22;8435;52.184;5.406;2023-07-29T13:14:02;25.00;97.90
16643;DHT22;8435;52.184;5.406;2023-07-29T13:16:29;25.00;97.90
16643;DHT22;8435;52.184;5.406;2023-07-29T13:18:57;25.10;97.70
16643;DHT22;8435;52.184;5.406;2023-07-29T13:21:24;25.10;97.50
16643;DHT22;8435;52.184;5.406;2023-07-29T13:23:51;25.10;97.40
16643;DHT22;8435;52.184;5.406;2023-07-29T13:26:18;25.10;97.40
16643;DHT22;8435;52.184;5.406;2023-07-29T13:28:47;25.10;97.40
16643;DHT22;8435;52.184;5.406;2023-07-29T13:31:14;25.10;97.30
16643;DHT22;8435;52.184;5.406;2023-07-29T13:33:41;25.00;97.60
16643;DHT22;8435;52.184;5.406;2023-07-29T13:36:09;25.00;97.60
16643;DHT22;8435;52.184;5.406;2023-07-29T13:38:36;25.00;97.40
16643;DHT22;8435;52.184;5.406;2023-07-29T13:41:03;25.00;97.50
16643;DHT22;8435;52.184;5.406;2023-07-29T13:43:30;25.00;97.40
16643;DHT22;8435;52.184;5.406;2023-07-29T13:45:57;25.00;97.50
16643;DHT22;8435;52.184;5.406;2023-07-29T13:48:24;25.10;97.40
16643;DHT22;8435;52.184;5.406;2023-07-29T13:50:50;25.10;97.50
16643;DHT22;8435;52.184;5.406;2023-07-29T13:53:19;25.10;97.50
16643;DHT22;8435;52.184;5.406;2023-07-29T13:55:46;25.20;97.30
16643;DHT22;8435;52.184;5.406;2023-07-29T13:58:13;25.20;97.30
16643;DHT22;8435;52.184;5.406;2023-07-29T14:00:39;25.30;97.10
16643;DHT22;8435;52.184;5.406;2023-07-29T14:03:06;25.30;97.00
16643;DHT22;8435;52.184;5.406;2023-07-29T14:05:33;25.40;97.40
16643;DHT22;8435;52.184;5.406;2023-07-29T14:08:00;25.40;96.90
16643;DHT22;8435;52.184;5.406;2023-07-29T14:10:28;25.50;96.90
16643;DHT22;8435;52.184;5.406;2023-07-29T14:12:55;25.50;96.20
16643;DHT22;8435;52.184;5.406;2023-07-29T14:15:25;25.60;96.20
16643;DHT22;8435;52.184;5.406;2023-07-29T14:17:51;25.60;96.00
16643;DHT22;8435;52.184;5.406;2023-07-29T14:20:18;25.70;96.20
16643;DHT22;8435;52.184;5.406;2023-07-29T14:22:45;25.70;96.00
16643;DHT22;8435;52.184;5.406;2023-07-29T14:25:12;25.80;96.00
16643;DHT22;8435;52.184;5.406;2023-07-29T14:27:41;25.90;95.60
16643;DHT22;8435;52.184;5.406;2023-07-29T14:30:09;25.90;95.70
16643;DHT22;8435;52.184;5.406;2023-07-29T14:32:36;25.90;95.20
16643;DHT22;8435;52.184;5.406;2023-07-29T14:35:04;25.90;95.10
16643;DHT22;8435;52.184;5.406;2023-07-29T14:37:33;26.00;94.80
16643;DHT22;8435;52.184;5.406;2023-07-29T14:40:01;26.00;94.50
16643;DHT22;8435;52.184;5.406;2023-07-29T14:42:28;26.00;94.60
16643;DHT22;8435;52.184;5.406;2023-07-29T14:44:56;26.00;94.30
16643;DHT22;8435;52.184;5.406;2023-07-29T14:47:23;26.00;94.30
16643;DHT22;8435;52.184;5.406;2023-07-29T14:49:50;26.10;94.50
16643;DHT22;8435;52.184;5.406;2023-07-29T14:52:17;26.10;94.50
16643;DHT22;8435;52.184;5.406;2023-07-29T14:54:44;26.10;93.70
16643;DHT22;8435;52.184;5.406;2023-07-29T14:57:11;26.10;93.90
16643;DHT22;8435;52.184;5.406;2023-07-29T14:59:37;26.10;93.60
16643;DHT22;8435;52.184;5.406;2023-07-29T15:02:06;26.10;93.30
16643;DHT22;8435;52.184;5.406;2023-07-29T15:04:33;26.20;93.10
16643;DHT22;8435;52.184;5.406;2023-07-29T15:07:01;26.10;93.00
16643;DHT22;8435;52.184;5.406;2023-07-29T15:09:28;26.10;92.80
16643;DHT22;8435;52.184;5.406;2023-07-29T15:11:55;26.10;92.80
16643;DHT22;8435;52.184;5.406;2023-07-29T15:14:22;26.00;92.60
16643;DHT22;8435;52.184;5.406;2023-07-29T15:16:49;26.00;92.70
16643;DHT22;8435;52.184;5.406;2023-07-29T15:19:17;26.00;92.50
16643;DHT22;8435;52.184;5.406;2023-07-29T15:21:44;25.90;92.40
16643;DHT22;8435;52.184;5.406;2023-07-29T15:24:10;25.90;92.30
16643;DHT22;8435;52.184;5.406;2023-07-29T15:26:37;25.90;92.90
16643;DHT22;8435;52.184;5.406;2023-07-29T15:29:04;25.90;93.00
16643;DHT22;8435;52.184;5.406;2023-07-29T15:31:33;25.90;93.10
16643;DHT22;8435;52.184;5.406;2023-07-29T15:34:00;25.90;93.00
16643;DHT22;8435;52.184;5.406;2023-07-29T15:36:28;25.90;92.80
16643;DHT22;8435;52.184;5.406;2023-07-29T15:38:55;25.90;92.80
16643;DHT22;8435;52.184;5.406;2023-07-29T15:41:21;26.00;92.90
16643;DHT22;8435;52.184;5.406;2023-07-29T15:43:48;26.00;92.70
16643;DHT22;8435;52.184;5.406;2023-07-29T15:46:15;26.00;92.50
16643;DHT22;8435;52.184;5.406;2023-07-29T15:48:42;26.00;92.50
16643;DHT22;8435;52.184;5.406;2023-07-29T15:51:09;26.00;92.60